Time;durP1;ratioP1;P1;durP2;ratioP2;P2;SDS_P1;SDS_P2;PMS_P1;PMS_P2;Temp;Humidity;BMP_temperature;BMP_pressure;BME280_temperature;BME280_humidity;BME280_pressure;Samples;Min_cycle;Max_cycle;Signal;HPM_P1;HPM_P2
2021/10/20 00:01:46;;;;;;;24.15;20.27;;;16.10;99.90;;;;;;5105521;28;20554;-83
2021/10/20 00:04:15;;;;;;;21.05;16.98;;;16.00;99.90;;;;;;5096638;28;20229;-83
2021/10/20 00:06:44;;;;;;;25.65;17.75;;;16.00;99.90;;;;;;5095727;28;20210;-83
2021/10/20 00:09:11;;;;;;;21.55;18.05;;;16.00;99.90;;;;;;5101740;28;20229;-83
2021/10/20 00:11:38;;;;;;;18.90;16.40;;;16.00;99.90;;;;;;5102432;28;20211;-83
2021/10/20 00:14:06;;;;;;;19.98;17.05;;;16.00;99.90;;;;;;5101393;28;20679;-83
2021/10/20 00:16:33;;;;;;;18.70;16.80;;;15.90;99.90;;;;;;5094284;28;20201;-83
2021/10/20 00:19:00;;;;;;;19.93;17.23;;;15.90;99.90;;;;;;5098014;28;20446;-83
2021/10/20 00:21:29;;;;;;;20.30;18.10;;;15.90;99.90;;;;;;5107428;28;20510;-84
2021/10/20 00:23:59;;;;;;;20.50;16.52;;;15.90;99.90;;;;;;5109943;28;20486;-83
2021/10/20 00:26:26;;;;;;;18.00;16.10;;;15.80;99.90;;;;;;5100565;28;21432;-83
2021/10/20 00:28:53;;;;;;;18.63;16.63;;;15.80;99.90;;;;;;5105495;28;20450;-83
2021/10/20 00:31:21;;;;;;;24.10;18.70;;;15.70;99.90;;;;;;5105095;28;20218;-83
2021/10/20 00:33:48;;;;;;;21.88;16.25;;;15.80;99.90;;;;;;5102096;28;20214;-83
2021/10/20 00:36:16;;;;;;;19.30;15.50;;;15.70;99.90;;;;;;5107894;28;20200;-83
2021/10/20 00:38:43;;;;;;;25.13;16.08;;;15.70;99.90;;;;;;5101573;28;20446;-83
2021/10/20 00:41:12;;;;;;;17.60;13.55;;;15.70;99.90;;;;;;5100864;28;20692;-83
2021/10/20 00:43:39;;;;;;;20.35;16.08;;;15.70;99.90;;;;;;5096421;28;20239;-83
2021/10/20 00:46:06;;;;;;;16.48;14.73;;;15.80;99.90;;;;;;5100533;28;20826;-83
2021/10/20 00:48:34;;;;;;;18.05;14.77;;;15.70;99.90;;;;;;5101370;28;20549;-83
2021/10/20 00:51:01;;;;;;;16.73;13.20;;;15.70;99.90;;;;;;5093423;28;20228;-83
2021/10/20 00:53:28;;;;;;;15.65;13.93;;;15.70;99.90;;;;;;5094372;28;20231;-83
2021/10/20 00:55:55;;;;;;;16.23;13.80;;;15.70;99.90;;;;;;5105505;28;20213;-84
2021/10/20 00:58:24;;;;;;;15.30;13.35;;;15.80;99.90;;;;;;5098510;28;20200;-83
2021/10/20 01:00:51;;;;;;;15.98;13.15;;;15.80;99.90;;;;;;5085059;28;20253;-83
2021/10/20 01:03:19;;;;;;;16.73;15.00;;;15.80;99.90;;;;;;5096592;28;20221;-83
2021/10/20 01:05:47;;;;;;;17.95;14.50;;;15.80;99.90;;;;;;5099236;28;20204;-83
2021/10/20 01:08:14;;;;;;;15.25;12.85;;;15.80;99.90;;;;;;5095475;28;20196;-83
2021/10/20 01:10:41;;;;;;;14.93;12.73;;;15.80;99.90;;;;;;5106731;28;20220;-83
2021/10/20 01:13:08;;;;;;;15.65;13.10;;;15.70;99.90;;;;;;5110710;28;20195;-83
2021/10/20 01:15:37;;;;;;;16.10;13.07;;;15.70;99.90;;;;;;5099183;28;20197;-83
2021/10/20 01:18:04;;;;;;;15.68;12.02;;;15.70;99.90;;;;;;5099790;28;20767;-83
2021/10/20 01:20:33;;;;;;;14.80;12.63;;;15.70;99.90;;;;;;5099275;28;20226;-83
2021/10/20 01:23:02;;;;;;;18.30;12.73;;;15.70;99.90;;;;;;5097645;28;20597;-83
2021/10/20 01:25:29;;;;;;;14.25;12.50;;;15.70;99.90;;;;;;5097014;28;20197;-83
2021/10/20 01:27:57;;;;;;;13.93;11.20;;;15.70;99.90;;;;;;5092011;28;20212;-83
2021/10/20 01:30:24;;;;;;;14.57;11.70;;;15.70;99.90;;;;;;5092457;28;20281;-83
2021/10/20 01:32:51;;;;;;;13.80;12.40;;;15.70;99.90;;;;;;5103365;28;20675;-83
2021/10/20 01:35:19;;;;;;;14.65;11.82;;;15.60;99.90;;;;;;5090253;28;20909;-84
2021/10/20 01:37:46;;;;;;;15.02;12.13;;;15.70;99.90;;;;;;5096191;28;20223;-83
2021/10/20 01:40:17;;;;;;;14.73;11.93;;;15.70;99.90;;;;;;5099414;28;20220;-83
2021/10/20 01:42:44;;;;;;;12.25;10.57;;;15.70;99.90;;;;;;5093557;28;20198;-84
2021/10/20 01:45:13;;;;;;;13.90;11.52;;;15.70;99.90;;;;;;5081293;28;20209;-83
2021/10/20 01:47:40;;;;;;;13.05;10.90;;;15.70;99.90;;;;;;5110641;28;20656;-83
2021/10/20 01:50:10;;;;;;;14.85;10.95;;;15.70;99.90;;;;;;5105020;28;20227;-83
2021/10/20 01:52:37;;;;;;;13.00;10.00;;;15.70;99.90;;;;;;5102204;28;20196;-83
2021/10/20 01:55:06;;;;;;;12.65;10.48;;;15.70;99.90;;;;;;5106316;28;20204;-83
2021/10/20 01:57:34;;;;;;;12.52;10.10;;;15.70;99.90;;;;;;5102275;28;20203;-83
2021/10/20 02:00:01;;;;;;;13.35;10.82;;;15.70;99.90;;;;;;5102339;28;20231;-83
2021/10/20 02:02:28;;;;;;;16.25;13.88;;;15.60;99.90;;;;;;5102276;28;20210;-83
2021/10/20 02:04:56;;;;;;;16.27;13.38;;;15.60;99.90;;;;;;5091323;28;20227;-83
2021/10/20 02:07:23;;;;;;;19.17;14.75;;;15.70;99.90;;;;;;5097729;28;20584;-84
2021/10/20 02:09:50;;;;;;;15.23;13.32;;;15.60;99.90;;;;;;5103312;28;20228;-84
2021/10/20 02:12:17;;;;;;;15.10;10.90;;;15.60;99.90;;;;;;5114574;28;20195;-84
2021/10/20 02:14:45;;;;;;;10.90;9.00;;;15.60;99.90;;;;;;5100044;28;20278;-84
2021/10/20 02:17:12;;;;;;;11.75;9.02;;;15.70;99.90;;;;;;5089498;28;20200;-83
2021/10/20 02:19:41;;;;;;;11.10;9.82;;;15.60;99.90;;;;;;5092344;28;20722;-84
2021/10/20 02:22:08;;;;;;;11.25;9.73;;;15.60;99.90;;;;;;5107802;28;20209;-83
2021/10/20 02:24:35;;;;;;;9.93;8.75;;;15.60;99.90;;;;;;5100875;28;20232;-84
2021/10/20 02:27:02;;;;;;;11.98;8.88;;;15.70;99.90;;;;;;5102221;28;20211;-84
2021/10/20 02:29:31;;;;;;;9.23;7.95;;;15.60;99.90;;;;;;5106660;28;20219;-84
2021/10/20 02:32:00;;;;;;;11.68;7.88;;;15.60;99.90;;;;;;5106124;28;20260;-83
2021/10/20 02:34:27;;;;;;;8.68;7.78;;;15.60;99.90;;;;;;5098054;28;20207;-83
2021/10/20 02:36:54;;;;;;;9.20;8.20;;;15.60;99.90;;;;;;5091872;28;20213;-83
2021/10/20 02:39:21;;;;;;;13.70;8.82;;;15.60;99.90;;;;;;5102455;28;20227;-83
2021/10/20 02:41:49;;;;;;;9.00;8.10;;;15.60;99.90;;;;;;5092486;28;20209;-84
2021/10/20 02:44:16;;;;;;;11.75;8.10;;;15.60;99.90;;;;;;5097605;28;20229;-84
2021/10/20 02:46:44;;;;;;;12.30;8.80;;;15.50;99.90;;;;;;5102119;28;20214;-84
2021/10/20 02:49:12;;;;;;;12.60;8.40;;;15.50;99.90;;;;;;5093594;28;20218;-83
2021/10/20 02:51:39;;;;;;;8.95;8.05;;;15.50;99.90;;;;;;5109694;28;20220;-83
2021/10/20 02:54:07;;;;;;;10.15;8.75;;;15.50;99.90;;;;;;5095444;28;20214;-84
2021/10/20 02:56:34;;;;;;;8.18;7.35;;;15.40;99.90;;;;;;5101815;28;20203;-84
2021/10/20 02:59:01;;;;;;;11.50;7.45;;;15.40;99.90;;;;;;5105417;28;20209;-83
2021/10/20 03:01:28;;;;;;;9.77;7.38;;;15.40;99.90;;;;;;5102810;28;20207;-82
2021/10/20 03:03:55;;;;;;;9.00;8.10;;;15.50;99.90;;;;;;5096547;28;20219;-84
2021/10/20 03:06:24;;;;;;;9.05;7.10;;;15.50;99.90;;;;;;5100919;28;20253;-83
2021/10/20 03:08:51;;;;;;;12.30;8.15;;;15.40;99.90;;;;;;5101625;28;20211;-84
2021/10/20 03:11:18;;;;;;;12.55;6.90;;;15.50;99.90;;;;;;5102651;28;20213;-83
2021/10/20 03:13:45;;;;;;;7.38;6.68;;;15.50;99.90;;;;;;5095840;28;20645;-84
2021/10/20 03:16:12;;;;;;;9.50;6.68;;;15.50;99.90;;;;;;5098836;28;20199;-84
2021/10/20 03:18:40;;;;;;;8.07;7.03;;;15.50;99.90;;;;;;5099782;28;20207;-83
2021/10/20 03:21:07;;;;;;;8.00;6.68;;;15.50;99.90;;;;;;5110334;28;20714;-84
2021/10/20 03:23:35;;;;;;;8.02;6.70;;;15.60;99.90;;;;;;5101548;28;20250;-83
2021/10/20 03:26:02;;;;;;;8.00;7.03;;;15.50;99.90;;;;;;5103460;28;20202;-84
2021/10/20 03:28:29;;;;;;;9.15;6.75;;;15.50;99.90;;;;;;5116619;28;20198;-83
2021/10/20 03:30:57;;;;;;;8.23;6.70;;;15.50;99.90;;;;;;5109528;28;20227;-83
2021/10/20 03:33:24;;;;;;;9.52;6.68;;;15.50;99.90;;;;;;5104793;28;20208;-84
2021/10/20 03:35:51;;;;;;;8.13;5.70;;;15.40;99.90;;;;;;5103223;28;20207;-83
2021/10/20 03:38:18;;;;;;;8.88;6.50;;;15.40;99.90;;;;;;5103724;28;20211;-83
2021/10/20 03:40:46;;;;;;;7.88;6.00;;;15.40;99.90;;;;;;5111068;28;20283;-83
2021/10/20 03:43:13;;;;;;;6.90;5.60;;;15.50;99.90;;;;;;5114405;28;20198;-83
2021/10/20 03:45:41;;;;;;;8.15;7.28;;;15.40;99.90;;;;;;5134503;28;20298;-84
2021/10/20 03:48:08;;;;;;;7.75;5.97;;;15.40;99.90;;;;;;5124439;28;20245;-83
2021/10/20 03:50:35;;;;;;;6.97;6.30;;;15.40;99.90;;;;;;5140728;28;20213;-83
2021/10/20 03:53:02;;;;;;;8.80;7.47;;;15.30;99.90;;;;;;5131252;28;20179;-83
2021/10/20 03:55:29;;;;;;;8.85;6.03;;;15.50;99.90;;;;;;5120701;28;20199;-83
2021/10/20 03:57:59;;;;;;;9.48;5.90;;;15.50;99.90;;;;;;5116250;28;20200;-83
2021/10/20 04:00:26;;;;;;;6.40;4.70;;;15.50;99.90;;;;;;5103389;28;20232;-83
2021/10/20 04:02:53;;;;;;;6.22;4.90;;;15.40;99.90;;;;;;5095347;28;20204;-83
2021/10/20 04:05:21;;;;;;;8.05;5.72;;;15.50;99.90;;;;;;5105411;28;20234;-83
2021/10/20 04:07:50;;;;;;;6.32;5.70;;;15.50;99.90;;;;;;5097897;28;20210;-83
2021/10/20 04:10:19;;;;;;;6.88;6.05;;;15.50;99.90;;;;;;5106242;28;20692;-83
2021/10/20 04:12:47;;;;;;;6.20;5.60;;;15.50;99.90;;;;;;5110651;28;20204;-82
2021/10/20 04:15:17;;;;;;;7.88;6.00;;;15.50;99.90;;;;;;5118745;28;20200;-83
2021/10/20 04:17:44;;;;;;;11.85;6.18;;;15.50;99.90;;;;;;5111609;28;20203;-83
2021/10/20 04:20:13;;;;;;;6.50;5.90;;;15.50;99.90;;;;;;5114936;28;20215;-83
2021/10/20 04:22:40;;;;;;;8.15;5.40;;;15.50;99.90;;;;;;5107979;28;20993;-84
2021/10/20 04:25:08;;;;;;;6.43;5.82;;;15.40;99.90;;;;;;5104353;28;20214;-84
2021/10/20 04:27:35;;;;;;;9.07;6.82;;;15.40;99.90;;;;;;5105586;28;20203;-84
2021/10/20 04:30:03;;;;;;;7.68;5.75;;;15.40;99.90;;;;;;5104598;28;20211;-83
2021/10/20 04:32:32;;;;;;;6.15;5.40;;;15.40;99.90;;;;;;5115281;28;20276;-83
2021/10/20 04:35:00;;;;;;;5.63;4.90;;;15.50;99.90;;;;;;5108679;28;20199;-83
2021/10/20 04:37:27;;;;;;;7.28;5.13;;;15.50;99.90;;;;;;5108653;28;20209;-83
2021/10/20 04:39:56;;;;;;;7.07;5.70;;;15.50;99.90;;;;;;5098104;28;20357;-83
2021/10/20 04:42:24;;;;;;;18.77;6.80;;;15.40;99.90;;;;;;5098464;28;20198;-83
2021/10/20 04:44:52;;;;;;;7.75;5.78;;;15.40;99.90;;;;;;5109935;28;20617;-84
2021/10/20 04:47:19;;;;;;;6.00;5.40;;;15.50;99.90;;;;;;5095595;28;20202;-83
2021/10/20 04:49:48;;;;;;;7.25;5.32;;;15.50;99.90;;;;;;5108720;28;20214;-83
2021/10/20 04:52:17;;;;;;;5.95;5.35;;;15.40;99.90;;;;;;5098668;28;20227;-83
2021/10/20 04:54:45;;;;;;;7.07;6.38;;;15.50;99.90;;;;;;5098300;28;20679;-83
2021/10/20 04:57:12;;;;;;;7.82;6.88;;;15.50;99.90;;;;;;5106644;28;20557;-83
2021/10/20 04:59:39;;;;;;;6.53;5.25;;;15.50;99.90;;;;;;5100620;28;20242;-83
2021/10/20 05:02:06;;;;;;;6.30;5.70;;;15.50;99.90;;;;;;5105005;28;20203;-83
2021/10/20 05:04:33;;;;;;;8.55;6.28;;;15.50;99.90;;;;;;5107640;28;20222;-83
2021/10/20 05:07:01;;;;;;;6.05;5.45;;;15.50;99.90;;;;;;5094185;28;20206;-83
2021/10/20 05:09:29;;;;;;;5.85;5.32;;;15.50;99.90;;;;;;5102553;28;20306;-83
2021/10/20 05:11:56;;;;;;;7.22;5.78;;;15.50;99.90;;;;;;5111600;28;20207;-83
2021/10/20 05:14:23;;;;;;;6.70;6.03;;;15.60;99.90;;;;;;5107844;28;20207;-83
2021/10/20 05:16:50;;;;;;;7.10;5.63;;;15.50;99.90;;;;;;5109004;28;20260;-82
2021/10/20 05:19:17;;;;;;;10.05;5.97;;;15.60;99.90;;;;;;5108623;28;20223;-83
2021/10/20 05:21:45;;;;;;;9.45;5.65;;;15.60;99.90;;;;;;5109785;28;20283;-83
2021/10/20 05:24:13;;;;;;;9.38;6.20;;;15.60;99.90;;;;;;5106001;28;20218;-83
2021/10/20 05:26:40;;;;;;;8.98;6.50;;;15.60;99.90;;;;;;5098343;28;20207;-83
2021/10/20 05:29:08;;;;;;;6.60;5.90;;;15.60;99.90;;;;;;5114180;28;20208;-84
2021/10/20 05:31:36;;;;;;;8.60;6.13;;;15.60;99.90;;;;;;5098810;28;20261;-83
2021/10/20 05:34:03;;;;;;;6.68;5.00;;;15.50;99.90;;;;;;5104528;28;20202;-84
2021/10/20 05:36:39;;;;;;;14.23;7.57;;;15.60;99.90;;;;;;5103522;28;20212;-88
2021/10/20 05:39:07;;;;;;;8.00;5.78;;;15.60;99.90;;;;;;5102306;28;20199;-83
2021/10/20 05:41:35;;;;;;;8.02;6.13;;;15.60;99.90;;;;;;5104539;28;20207;-83
2021/10/20 05:44:02;;;;;;;7.82;6.15;;;15.70;99.90;;;;;;5104374;28;20293;-82
2021/10/20 05:46:29;;;;;;;7.78;6.15;;;15.70;99.90;;;;;;5107418;28;20202;-82
2021/10/20 05:48:56;;;;;;;11.05;6.38;;;15.60;99.90;;;;;;5110811;28;20228;-83
2021/10/20 05:51:24;;;;;;;6.70;5.55;;;15.70;99.90;;;;;;5109834;28;20570;-83
2021/10/20 05:53:51;;;;;;;7.07;6.35;;;15.70;99.90;;;;;;5095510;28;20290;-82
2021/10/20 05:56:18;;;;;;;9.02;5.97;;;15.70;99.90;;;;;;5101824;28;20258;-84
2021/10/20 05:58:46;;;;;;;7.72;6.75;;;15.70;99.90;;;;;;5107868;28;20202;-83
2021/10/20 06:01:13;;;;;;;8.77;6.05;;;15.70;99.90;;;;;;5099497;28;20198;-83
2021/10/20 06:03:41;;;;;;;7.13;5.93;;;15.70;99.90;;;;;;5109631;28;20403;-83
2021/10/20 06:06:11;;;;;;;7.20;6.50;;;15.70;99.90;;;;;;5103754;28;20214;-83
2021/10/20 06:08:38;;;;;;;11.27;6.30;;;15.70;99.90;;;;;;5105479;28;20195;-82
2021/10/20 06:11:05;;;;;;;8.75;6.50;;;15.80;99.90;;;;;;5100110;28;20214;-82
2021/10/20 06:13:32;;;;;;;8.68;6.38;;;15.70;99.90;;;;;;5091065;28;20257;-82
2021/10/20 06:16:01;;;;;;;11.20;7.82;;;15.70;99.90;;;;;;5103816;28;20205;-82
2021/10/20 06:18:29;;;;;;;11.57;7.68;;;15.80;99.90;;;;;;5091071;28;20207;-83
2021/10/20 06:20:57;;;;;;;8.05;6.25;;;15.80;99.90;;;;;;5091991;28;20219;-83
2021/10/20 06:23:24;;;;;;;9.77;7.13;;;15.80;99.90;;;;;;5102295;28;20291;-83
2021/10/20 06:25:51;;;;;;;10.32;7.60;;;15.80;99.90;;;;;;5092166;28;20230;-82
2021/10/20 06:28:18;;;;;;;8.95;6.90;;;15.80;99.90;;;;;;5105082;28;20202;-82
2021/10/20 06:30:45;;;;;;;11.00;7.93;;;15.80;99.90;;;;;;5102555;28;20225;-82
2021/10/20 06:33:14;;;;;;;12.68;7.30;;;15.90;99.90;;;;;;5096091;28;20208;-82
2021/10/20 06:35:41;;;;;;;8.05;6.97;;;15.90;99.90;;;;;;5095703;28;20212;-83
2021/10/20 06:38:08;;;;;;;11.63;8.48;;;15.90;99.90;;;;;;5090376;28;20205;-84
2021/10/20 06:40:35;;;;;;;8.35;7.05;;;15.90;99.90;;;;;;5089837;28;20228;-84
2021/10/20 06:43:03;;;;;;;10.02;7.82;;;15.90;99.90;;;;;;5096890;28;20205;-85
2021/10/20 06:45:30;;;;;;;10.57;8.32;;;16.00;99.90;;;;;;5093185;28;20665;-85
2021/10/20 06:47:58;;;;;;;8.23;7.10;;;16.00;99.90;;;;;;5095344;28;20567;-85
2021/10/20 06:50:26;;;;;;;9.45;8.15;;;16.10;99.90;;;;;;5099202;28;20220;-84
2021/10/20 06:52:53;;;;;;;9.98;7.75;;;16.10;99.90;;;;;;5090481;28;20622;-84
2021/10/20 06:55:21;;;;;;;12.43;7.75;;;16.10;99.90;;;;;;5097279;28;21559;-83
2021/10/20 06:57:51;;;;;;;9.52;8.00;;;16.10;99.90;;;;;;5103343;28;20278;-83
2021/10/20 07:00:18;;;;;;;14.32;8.07;;;16.00;99.90;;;;;;5094019;28;20238;-83
2021/10/20 07:02:45;;;;;;;10.25;8.07;;;16.00;99.90;;;;;;5093924;28;20204;-83
2021/10/20 07:05:12;;;;;;;9.02;7.50;;;16.00;99.90;;;;;;5092328;28;20232;-82
2021/10/20 07:07:40;;;;;;;10.77;8.00;;;16.00;99.90;;;;;;5107870;28;20195;-83
2021/10/20 07:10:09;;;;;;;10.45;8.15;;;16.00;99.90;;;;;;5088366;28;20220;-82
2021/10/20 07:12:37;;;;;;;8.43;7.53;;;16.00;99.90;;;;;;5090528;28;20200;-83
2021/10/20 07:15:06;;;;;;;10.27;6.85;;;16.00;99.90;;;;;;5106829;28;20200;-85
2021/10/20 07:17:33;;;;;;;14.30;7.97;;;16.00;99.90;;;;;;5109843;28;20228;-82
2021/10/20 07:20:01;;;;;;;12.45;9.25;;;16.20;99.90;;;;;;5098183;28;20478;-86
2021/10/20 07:22:28;;;;;;;10.30;8.05;;;16.20;99.90;;;;;;5097986;28;20201;-84
2021/10/20 07:24:56;;;;;;;12.57;7.78;;;16.20;99.90;;;;;;5085180;28;20701;-84
2021/10/20 07:30:50;;;;;;;9.82;8.32;;;16.20;99.90;;;;;;5090969;28;20231;-81
2021/10/20 07:33:18;;;;;;;9.60;8.00;;;16.20;99.90;;;;;;5098783;28;20240;-81
2021/10/20 07:35:45;;;;;;;8.57;7.03;;;16.30;99.90;;;;;;5092857;28;20197;-81
2021/10/20 07:38:12;;;;;;;10.95;8.13;;;16.40;99.90;;;;;;5102645;28;21452;-85
2021/10/20 07:40:41;;;;;;;10.32;7.78;;;16.50;99.90;;;;;;5093265;28;20217;-83
2021/10/20 07:43:08;;;;;;;10.65;8.18;;;16.50;99.90;;;;;;5089956;28;20213;-83
2021/10/20 07:45:35;;;;;;;10.97;7.20;;;16.60;99.90;;;;;;5093723;28;20233;-83
2021/10/20 07:48:02;;;;;;;12.03;8.33;;;16.70;99.90;;;;;;5094518;28;20530;-82
2021/10/20 07:50:30;;;;;;;13.70;9.50;;;16.80;99.90;;;;;;5094767;28;20470;-82
2021/10/20 07:52:58;;;;;;;12.60;9.20;;;16.90;99.90;;;;;;5086735;28;20449;-83
2021/10/20 07:55:26;;;;;;;9.50;7.70;;;16.90;99.90;;;;;;5087984;28;20441;-82
2021/10/20 07:57:55;;;;;;;12.13;7.10;;;16.90;99.90;;;;;;5091692;28;20459;-83
2021/10/20 08:00:23;;;;;;;13.50;8.80;;;17.00;99.90;;;;;;5097400;28;20480;-82
2021/10/20 08:02:50;;;;;;;9.80;7.80;;;17.00;99.90;;;;;;5100927;28;20468;-82
2021/10/20 08:05:18;;;;;;;12.70;8.20;;;17.00;99.90;;;;;;5102080;28;20480;-82
2021/10/20 08:07:46;;;;;;;10.33;7.63;;;17.10;99.90;;;;;;5101888;28;20436;-83
2021/10/20 08:10:13;;;;;;;15.70;8.93;;;17.20;99.90;;;;;;5092271;28;20477;-82
2021/10/20 08:12:41;;;;;;;8.83;7.33;;;17.20;99.90;;;;;;5104894;28;20453;-82
2021/10/20 08:15:11;;;;;;;10.63;8.13;;;17.10;99.90;;;;;;5113472;28;20439;-83
2021/10/20 08:17:38;;;;;;;10.60;8.73;;;17.20;99.90;;;;;;5100180;28;20446;-83
2021/10/20 08:20:09;;;;;;;10.33;8.77;;;17.30;99.90;;;;;;5098718;28;20476;-84
2021/10/20 08:22:36;;;;;;;10.93;7.70;;;17.30;99.90;;;;;;5103423;28;20571;-83
2021/10/20 08:25:03;;;;;;;9.50;8.37;;;17.20;99.90;;;;;;5099566;28;20454;-82
2021/10/20 08:27:31;;;;;;;12.17;8.70;;;17.10;99.90;;;;;;5104617;28;20460;-83
2021/10/20 08:29:58;;;;;;;9.93;8.60;;;17.40;99.90;;;;;;5094876;28;20464;-83
2021/10/20 08:32:27;;;;;;;10.67;8.57;;;17.50;99.90;;;;;;5113418;28;20444;-81
2021/10/20 08:34:54;;;;;;;9.20;7.80;;;17.40;99.90;;;;;;5104614;28;20949;-83
2021/10/20 08:37:21;;;;;;;8.40;7.30;;;17.40;99.90;;;;;;5090957;28;20461;-83
2021/10/20 08:39:48;;;;;;;9.23;7.77;;;17.40;99.90;;;;;;5103027;28;20485;-83
2021/10/20 08:42:15;;;;;;;10.97;7.83;;;17.40;99.90;;;;;;5097983;28;20445;-84
2021/10/20 08:44:42;;;;;;;10.87;8.27;;;17.30;99.90;;;;;;5102736;28;20510;-83
2021/10/20 08:47:12;;;;;;;14.77;9.77;;;17.30;99.90;;;;;;5114465;28;20497;-81
2021/10/20 08:49:43;;;;;;;11.17;9.30;;;17.30;99.90;;;;;;5117919;28;20455;-82
2021/10/20 08:52:11;;;;;;;10.27;8.07;;;17.30;99.90;;;;;;5114509;28;20432;-80
2021/10/20 08:54:38;;;;;;;8.93;7.27;;;17.40;99.90;;;;;;5112648;28;20438;-81
2021/10/20 08:57:05;;;;;;;17.40;8.90;;;17.40;99.90;;;;;;5114872;28;20435;-81
2021/10/20 08:59:35;;;;;;;11.27;8.90;;;17.30;99.90;;;;;;5109952;28;20468;-82
2021/10/20 09:02:04;;;;;;;9.13;8.03;;;17.40;99.90;;;;;;5127661;28;20462;-82
2021/10/20 09:04:32;;;;;;;9.70;8.17;;;17.50;99.90;;;;;;5116920;28;20482;-82
2021/10/20 09:07:03;;;;;;;11.90;8.73;;;17.60;99.90;;;;;;5116571;28;20476;-82
2021/10/20 09:09:34;;;;;;;8.73;7.90;;;17.60;99.90;;;;;;5091185;28;20479;-82
2021/10/20 09:12:01;;;;;;;15.07;7.73;;;17.60;99.90;;;;;;5100723;28;20506;-82
2021/10/20 09:14:28;;;;;;;9.83;8.37;;;17.60;99.90;;;;;;5102377;28;20455;-82
2021/10/20 09:16:55;;;;;;;8.70;7.87;;;17.60;99.90;;;;;;5100749;28;20447;-83
2021/10/20 09:19:31;;;;;;;9.30;7.93;;;17.60;99.90;;;;;;5115779;28;20466;-82
2021/10/20 09:22:01;;;;;;;7.93;6.57;;;17.70;99.90;;;;;;5098593;28;20574;-83
2021/10/20 09:24:34;;;;;;;12.03;7.80;;;18.00;99.90;;;;;;5098441;28;20483;-83
2021/10/20 09:27:03;;;;;;;7.73;6.93;;;18.40;99.90;;;;;;5096106;28;20471;-83
2021/10/20 09:29:32;;;;;;;7.63;6.80;;;18.60;99.90;;;;;;5102948;28;20464;-83
2021/10/20 09:38:06;;;;;;;7.70;6.90;;;18.70;99.90;;;;;;5090718;28;20453;-82
2021/10/20 09:40:37;;;;;;;8.53;5.97;;;18.50;99.90;;;;;;5092490;28;20814;-82
2021/10/20 09:43:05;;;;;;;9.63;7.40;;;18.40;99.90;;;;;;5099117;28;20444;-84
2021/10/20 09:45:36;;;;;;;11.40;9.27;;;18.20;99.90;;;;;;5109714;28;20502;-82
2021/10/20 09:48:11;;;;;;;13.77;7.20;;;18.10;99.90;;;;;;5091872;28;20443;-84
2021/10/20 09:50:40;;;;;;;8.37;7.50;;;18.00;99.90;;;;;;5097250;28;20517;-82
2021/10/20 09:53:07;;;;;;;14.50;8.23;;;18.10;99.90;;;;;;5099415;28;20448;-82
2021/10/20 09:55:35;;;;;;;7.93;6.13;;;18.10;99.90;;;;;;5103219;28;20437;-82
2021/10/20 09:58:03;;;;;;;9.23;7.17;;;18.30;99.90;;;;;;5102230;28;20522;-83
2021/10/20 10:00:31;;;;;;;6.93;6.23;;;18.20;99.90;;;;;;5105758;28;20540;-83
2021/10/20 10:02:58;;;;;;;7.93;7.13;;;18.20;99.90;;;;;;5105798;28;20468;-82
2021/10/20 10:05:27;;;;;;;8.13;6.67;;;18.20;99.90;;;;;;5105174;28;20428;-83
2021/10/20 10:07:55;;;;;;;9.30;7.83;;;18.20;99.90;;;;;;5105423;28;20436;-83
2021/10/20 10:10:22;;;;;;;9.83;8.17;;;18.10;99.90;;;;;;5097154;28;20474;-83
2021/10/20 10:12:54;;;;;;;9.53;8.33;;;18.20;99.90;;;;;;5096708;28;20445;-83
2021/10/20 10:15:23;;;;;;;7.30;6.60;;;18.20;99.90;;;;;;5092830;28;20451;-84
2021/10/20 10:17:53;;;;;;;8.00;6.60;;;18.10;99.90;;;;;;5106494;28;20444;-81
2021/10/20 10:20:21;;;;;;;11.47;7.37;;;18.10;99.90;;;;;;5093143;28;20476;-82
2021/10/20 10:22:51;;;;;;;10.60;8.37;;;18.10;99.90;;;;;;5095827;28;20895;-82
2021/10/20 10:25:31;;;;;;;9.20;6.40;;;18.10;99.90;;;;;;5100203;28;20479;-82
2021/10/20 10:28:05;;;;;;;11.20;6.87;;;18.10;99.90;;;;;;5098719;28;20447;-83
2021/10/20 10:30:34;;;;;;;7.57;6.77;;;18.10;99.90;;;;;;5098505;28;20463;-82
2021/10/20 10:33:03;;;;;;;8.43;6.73;;;18.20;99.90;;;;;;5101062;28;20440;-82
2021/10/20 10:35:36;;;;;;;8.33;7.43;;;18.20;99.90;;;;;;5109086;28;20443;-82
2021/10/20 10:38:04;;;;;;;8.40;7.60;;;18.40;99.90;;;;;;5101907;28;20445;-82
2021/10/20 10:40:33;;;;;;;7.67;6.97;;;18.50;99.90;;;;;;5108192;28;20479;-82
2021/10/20 10:43:06;;;;;;;8.07;7.00;;;18.80;99.90;;;;;;5100515;28;20471;-82
2021/10/20 10:45:34;;;;;;;8.77;6.67;;;19.00;99.90;;;;;;5098975;28;20454;-82
2021/10/20 10:48:03;;;;;;;8.40;6.50;;;19.30;99.90;;;;;;5096848;28;20445;-82
2021/10/20 10:50:42;;;;;;;8.50;7.63;;;19.80;99.90;;;;;;5088476;28;20456;-81
2021/10/20 10:53:10;;;;;;;7.10;6.10;;;20.10;99.90;;;;;;5099879;28;20580;-82
2021/10/20 10:55:37;;;;;;;9.60;6.60;;;20.10;99.90;;;;;;5108633;28;20445;-83
2021/10/20 10:58:17;;;;;;;12.43;6.93;;;20.20;99.90;;;;;;5106352;28;20458;-82
2021/10/20 11:00:46;;;;;;;7.97;6.50;;;20.20;99.90;;;;;;5102465;28;20971;-82
2021/10/20 11:03:26;;;;;;;14.50;7.27;;;20.00;99.90;;;;;;5105770;28;20448;-82
2021/10/20 11:05:59;;;;;;;7.17;6.10;;;19.70;99.90;;;;;;5105741;28;20427;-82
2021/10/20 11:08:28;;;;;;;7.60;6.40;;;19.40;99.90;;;;;;5097897;28;20858;-84
2021/10/20 11:10:55;;;;;;;8.60;5.87;;;19.30;99.90;;;;;;5096929;28;20460;-83
2021/10/20 11:13:24;;;;;;;22.73;8.27;;;19.00;99.90;;;;;;5101271;28;20464;-84
2021/10/20 11:15:51;;;;;;;8.27;6.87;;;18.70;99.90;;;;;;5112109;28;20463;-82
2021/10/20 11:18:21;;;;;;;9.80;6.70;;;18.80;99.90;;;;;;5111273;28;20448;-84
2021/10/20 11:20:49;;;;;;;9.63;7.00;;;18.70;99.90;;;;;;5093798;28;20813;-82
2021/10/20 11:23:19;;;;;;;10.47;8.20;;;18.60;99.90;;;;;;5107484;28;20429;-83
2021/10/20 11:25:48;;;;;;;7.83;7.00;;;18.50;99.90;;;;;;5104031;28;20559;-83
2021/10/20 11:28:16;;;;;;;8.73;6.40;;;18.50;99.90;;;;;;5102070;28;20464;-83
2021/10/20 11:30:44;;;;;;;10.17;8.23;;;18.40;99.90;;;;;;5105203;28;20458;-83
2021/10/20 11:33:16;;;;;;;10.90;8.47;;;18.30;99.90;;;;;;5094156;28;20454;-83
2021/10/20 11:35:45;;;;;;;7.73;6.93;;;18.30;99.90;;;;;;5096804;28;20848;-83
2021/10/20 11:38:14;;;;;;;7.37;6.67;;;18.30;99.90;;;;;;5092236;28;20444;-83
2021/10/20 11:40:43;;;;;;;8.20;7.40;;;18.30;99.90;;;;;;5095400;28;20481;-83
2021/10/20 11:43:17;;;;;;;11.10;7.50;;;18.30;99.90;;;;;;5098275;28;20453;-82
2021/10/20 11:45:47;;;;;;;8.33;7.10;;;18.10;99.90;;;;;;5096167;28;20441;-83
2021/10/20 11:48:18;;;;;;;7.93;7.13;;;18.10;99.90;;;;;;5097404;28;20480;-83
2021/10/20 11:50:48;;;;;;;8.53;7.10;;;18.10;99.90;;;;;;5098905;28;20548;-83
2021/10/20 11:53:16;;;;;;;9.80;8.90;;;18.10;99.90;;;;;;5092996;28;20442;-83
2021/10/20 11:55:44;;;;;;;10.03;7.63;;;18.10;99.90;;;;;;5097757;28;20441;-83
2021/10/20 11:58:18;;;;;;;8.30;7.40;;;18.30;99.90;;;;;;5092515;28;20444;-83
2021/10/20 12:00:52;;;;;;;7.33;6.60;;;18.50;99.90;;;;;;5108177;28;20480;-83
2021/10/20 12:03:19;;;;;;;11.07;8.20;;;18.80;99.90;;;;;;5104839;28;20576;-83
2021/10/20 12:05:47;;;;;;;8.77;7.87;;;19.10;99.90;;;;;;5115280;28;20449;-82
2021/10/20 12:08:15;;;;;;;7.80;6.70;;;19.20;99.90;;;;;;5098761;28;20486;-83
2021/10/20 12:10:42;;;;;;;7.70;6.73;;;19.40;99.90;;;;;;5100440;28;20477;-84
2021/10/20 12:13:10;;;;;;;7.93;7.07;;;19.30;99.90;;;;;;5101088;28;20531;-83
2021/10/20 12:15:42;;;;;;;10.87;6.97;;;19.30;99.90;;;;;;5097854;28;20542;-83
2021/10/20 12:18:12;;;;;;;11.27;7.57;;;19.20;99.90;;;;;;5097501;28;20470;-84
2021/10/20 12:20:41;;;;;;;8.50;7.43;;;19.10;99.90;;;;;;5105434;28;20487;-81
2021/10/20 12:23:09;;;;;;;11.10;8.10;;;19.00;99.90;;;;;;5095277;28;20440;-82
2021/10/20 12:25:37;;;;;;;10.30;8.33;;;18.80;99.90;;;;;;5098627;28;20445;-82
2021/10/20 12:28:05;;;;;;;8.27;7.50;;;18.80;99.90;;;;;;5102346;28;20483;-83
2021/10/20 12:30:33;;;;;;;8.80;7.80;;;18.70;99.90;;;;;;5090337;28;20464;-82
2021/10/20 12:33:09;;;;;;;7.90;6.63;;;18.70;99.90;;;;;;5092183;28;20440;-81
2021/10/20 12:35:38;;;;;;;8.27;6.60;;;18.70;99.90;;;;;;5099725;28;20480;-81
2021/10/20 12:38:06;;;;;;;9.70;8.70;;;18.70;99.90;;;;;;5111417;28;20466;-82
2021/10/20 12:40:33;;;;;;;8.70;7.83;;;18.60;99.90;;;;;;5101225;28;20527;-82
2021/10/20 12:43:03;;;;;;;10.10;7.97;;;18.60;99.90;;;;;;5114852;28;20821;-83
2021/10/20 12:45:32;;;;;;;9.50;8.23;;;18.50;99.90;;;;;;5093958;28;20446;-82
2021/10/20 12:48:03;;;;;;;10.20;8.63;;;18.40;99.90;;;;;;5095769;28;20904;-83
2021/10/20 12:50:32;;;;;;;9.53;7.80;;;18.40;99.90;;;;;;5105573;28;20463;-83
2021/10/20 12:53:01;;;;;;;6.80;6.10;;;18.30;99.90;;;;;;5116150;28;20437;-82
2021/10/20 12:55:29;;;;;;;9.27;8.20;;;18.30;99.90;;;;;;5113688;28;20436;-82